Time;durP1;ratioP1;P1;durP2;ratioP2;P2;SDS_P1;SDS_P2;PMS_P1;PMS_P2;Temp;Humidity;BMP_temperature;BMP_pressure;BME280_temperature;BME280_humidity;BME280_pressure;Samples;Min_cycle;Max_cycle;Signal;HPM_P1;HPM_P2
2021/05/22 00:02:19;;;;;;;5.82;1.33;;;9.00;99.90;;;;;;5045831;28;20067;-72
2021/05/22 00:04:44;;;;;;;0.60;0.60;;;9.00;99.90;;;;;;5046222;28;20029;-71
2021/05/22 00:07:10;;;;;;;1.55;0.95;;;9.00;99.90;;;;;;5045079;28;20039;-72
2021/05/22 00:09:36;;;;;;;1.48;0.73;;;9.00;99.90;;;;;;5045855;28;20025;-71
2021/05/22 00:12:02;;;;;;;1.17;0.73;;;9.00;99.90;;;;;;5046274;28;20026;-74
2021/05/22 00:14:28;;;;;;;1.70;0.98;;;9.00;99.90;;;;;;5027858;28;20501;-74
2021/05/22 00:16:53;;;;;;;4.50;1.08;;;9.00;99.90;;;;;;5045770;28;20025;-73
2021/05/22 00:19:19;;;;;;;2.60;1.38;;;9.00;99.90;;;;;;5045859;28;20030;-73
2021/05/22 00:21:44;;;;;;;3.30;1.08;;;9.10;99.90;;;;;;5027537;28;20109;-72
2021/05/22 00:24:11;;;;;;;1.92;0.73;;;9.00;99.90;;;;;;5045664;28;20047;-73
2021/05/22 00:26:37;;;;;;;3.45;1.17;;;9.00;99.90;;;;;;5045527;28;20048;-73
2021/05/22 00:29:03;;;;;;;4.45;1.35;;;9.00;99.90;;;;;;5045202;28;20076;-72
2021/05/22 00:31:29;;;;;;;1.05;0.98;;;9.00;99.90;;;;;;5027519;28;20074;-73
2021/05/22 00:33:55;;;;;;;14.77;1.05;;;9.00;99.90;;;;;;5027930;28;20033;-76
2021/05/22 00:36:20;;;;;;;10.85;1.17;;;9.00;99.90;;;;;;5045379;28;20056;-74
2021/05/22 00:38:46;;;;;;;4.30;1.13;;;9.00;99.90;;;;;;5045583;28;20042;-74
2021/05/22 00:41:12;;;;;;;3.72;1.35;;;9.00;99.90;;;;;;5027494;28;20055;-74
2021/05/22 00:43:37;;;;;;;1.48;0.70;;;9.00;99.90;;;;;;5026955;28;20048;-72
2021/05/22 00:46:04;;;;;;;2.85;0.88;;;9.00;99.90;;;;;;5027678;28;20041;-73
2021/05/22 00:48:30;;;;;;;0.60;0.40;;;8.90;99.90;;;;;;5027362;28;20056;-73
2021/05/22 00:50:57;;;;;;;8.30;1.10;;;8.90;99.90;;;;;;5045234;28;20029;-73
2021/05/22 00:53:22;;;;;;;2.60;1.00;;;8.90;99.90;;;;;;5045469;28;20024;-71
2021/05/22 00:55:48;;;;;;;4.40;0.80;;;8.80;99.90;;;;;;5044907;28;20025;-74
2021/05/22 00:58:13;;;;;;;7.00;0.63;;;8.80;99.90;;;;;;5044282;28;20033;-72
2021/05/22 01:00:43;;;;;;;2.33;0.50;;;8.80;99.90;;;;;;5044906;28;20053;-73
2021/05/22 01:03:20;;;;;;;1.50;1.02;;;8.70;99.90;;;;;;5044591;28;20029;-73
2021/05/22 01:05:46;;;;;;;1.70;0.93;;;8.70;99.90;;;;;;5044614;28;20438;-72
2021/05/22 01:08:23;;;;;;;1.90;1.10;;;8.70;99.90;;;;;;5027168;28;20052;-73
2021/05/22 01:11:00;;;;;;;1.08;0.95;;;8.70;99.90;;;;;;5044648;28;20037;-73
2021/05/22 01:13:29;;;;;;;3.13;0.88;;;8.70;99.90;;;;;;5027081;28;20029;-73
2021/05/22 01:15:57;;;;;;;3.15;0.88;;;8.60;99.90;;;;;;5044568;28;20094;-72
2021/05/22 01:18:24;;;;;;;1.73;0.93;;;8.60;99.90;;;;;;5044105;28;20041;-73
2021/05/22 01:20:56;;;;;;;4.72;1.35;;;8.60;99.90;;;;;;5044505;28;20061;-73
2021/05/22 01:23:39;;;;;;;1.33;0.57;;;8.60;99.90;;;;;;5044628;28;20116;-74
2021/05/22 01:26:06;;;;;;;8.90;1.60;;;8.70;99.90;;;;;;5044711;28;20028;-73
2021/05/22 01:28:34;;;;;;;1.80;1.10;;;8.70;99.90;;;;;;5044649;28;20029;-74
2021/05/22 01:31:01;;;;;;;1.83;0.93;;;8.70;99.90;;;;;;5044726;28;20032;-72
2021/05/22 01:33:27;;;;;;;1.63;0.98;;;8.80;99.90;;;;;;5044292;28;20033;-78
2021/05/22 01:35:53;;;;;;;2.58;0.98;;;8.80;99.90;;;;;;5026935;28;20095;-73
2021/05/22 01:38:19;;;;;;;3.25;1.10;;;8.80;99.90;;;;;;5026650;28;20370;-74
2021/05/22 01:40:45;;;;;;;2.45;1.42;;;8.70;99.90;;;;;;5044284;28;20036;-76
2021/05/22 01:43:11;;;;;;;3.13;1.33;;;8.90;99.90;;;;;;5044230;28;20028;-73
2021/05/22 01:45:42;;;;;;;2.67;0.70;;;8.90;99.90;;;;;;5026492;28;20029;-74
2021/05/22 01:48:14;;;;;;;0.68;0.60;;;8.90;99.90;;;;;;5044241;28;20490;-72
2021/05/22 01:50:43;;;;;;;1.52;0.57;;;8.90;99.90;;;;;;5026427;28;20026;-73
2021/05/22 01:53:12;;;;;;;1.13;0.68;;;9.00;99.90;;;;;;5043968;28;20132;-76
2021/05/22 01:55:38;;;;;;;3.10;1.10;;;9.00;99.90;;;;;;5025948;28;20026;-75
2021/05/22 01:58:05;;;;;;;0.50;0.50;;;8.90;99.90;;;;;;5026671;28;20105;-76
2021/05/22 02:00:31;;;;;;;1.67;0.60;;;8.90;99.90;;;;;;5043801;28;20053;-73
2021/05/22 02:03:16;;;;;;;2.70;0.98;;;8.90;99.90;;;;;;5043686;28;20021;-73
2021/05/22 02:05:46;;;;;;;1.17;0.85;;;8.90;99.90;;;;;;5025675;28;20501;-73
2021/05/22 02:08:16;;;;;;;1.58;1.10;;;8.80;99.90;;;;;;5043021;28;20064;-74
2021/05/22 02:10:42;;;;;;;1.50;0.80;;;8.90;99.90;;;;;;5025793;28;20029;-72
2021/05/22 02:13:08;;;;;;;4.63;0.88;;;8.80;99.90;;;;;;5043030;28;20029;-73
2021/05/22 02:15:36;;;;;;;6.78;0.90;;;8.80;99.90;;;;;;5025318;28;20026;-74
2021/05/22 02:18:04;;;;;;;1.42;0.88;;;8.80;99.90;;;;;;5025471;28;20057;-75
2021/05/22 02:20:31;;;;;;;1.13;0.73;;;8.80;99.90;;;;;;5043031;28;20577;-75
2021/05/22 02:23:00;;;;;;;5.82;0.82;;;8.80;99.90;;;;;;5045380;28;20022;-72
2021/05/22 02:25:26;;;;;;;3.65;1.08;;;8.70;99.90;;;;;;5028932;28;20053;-72
2021/05/22 02:27:53;;;;;;;3.95;1.00;;;8.70;99.90;;;;;;5028561;28;20049;-73
2021/05/22 02:30:19;;;;;;;2.67;1.33;;;8.70;99.90;;;;;;5046407;28;20048;-73
2021/05/22 02:32:48;;;;;;;3.45;1.15;;;8.70;99.90;;;;;;5028546;28;20053;-73
2021/05/22 02:35:15;;;;;;;0.50;0.47;;;8.70;99.90;;;;;;5046135;28;20096;-72
2021/05/22 02:37:41;;;;;;;5.93;1.40;;;8.70;99.90;;;;;;5028678;28;20060;-74
2021/05/22 02:40:27;;;;;;;0.80;0.80;;;8.70;99.90;;;;;;5046423;28;20025;-72
2021/05/22 02:42:57;;;;;;;4.85;1.05;;;8.60;99.90;;;;;;5028119;28;20036;-73
2021/05/22 02:45:25;;;;;;;2.55;1.15;;;8.60;99.90;;;;;;5046556;28;20462;-76
2021/05/22 02:47:55;;;;;;;1.63;0.90;;;8.60;99.90;;;;;;5028416;28;20036;-73
2021/05/22 02:50:22;;;;;;;2.38;0.95;;;8.60;99.90;;;;;;5046049;28;20057;-74
2021/05/22 02:52:49;;;;;;;2.25;1.27;;;8.60;99.90;;;;;;5028491;28;20022;-74
2021/05/22 02:55:14;;;;;;;5.68;0.93;;;8.60;99.90;;;;;;5045336;28;20041;-74
2021/05/22 02:57:42;;;;;;;3.78;1.17;;;8.60;99.90;;;;;;5045986;28;20491;-73
2021/05/22 03:00:08;;;;;;;1.30;1.00;;;8.60;99.90;;;;;;5046092;28;20052;-74
2021/05/22 03:02:35;;;;;;;2.22;0.95;;;8.60;99.90;;;;;;5006668;28;637078;-72
2021/05/22 03:05:03;;;;;;;0.93;0.68;;;8.60;99.90;;;;;;5047434;28;20038;-75
2021/05/22 03:07:29;;;;;;;7.43;1.10;;;8.60;99.90;;;;;;5046961;28;20474;-75
2021/05/22 03:09:54;;;;;;;4.05;1.13;;;8.70;99.90;;;;;;5046932;28;20501;-74
2021/05/22 03:12:24;;;;;;;0.60;0.40;;;8.70;99.90;;;;;;5029297;28;20025;-70
2021/05/22 03:14:51;;;;;;;4.43;1.08;;;8.70;99.90;;;;;;5046562;28;20029;-72
2021/05/22 03:17:17;;;;;;;6.22;1.25;;;8.70;99.90;;;;;;5028254;28;20119;-74
2021/05/22 03:19:42;;;;;;;6.22;1.23;;;8.70;99.90;;;;;;5028921;28;20029;-70
2021/05/22 03:22:08;;;;;;;4.15;1.50;;;8.80;99.90;;;;;;5046480;28;20374;-74
2021/05/22 03:24:33;;;;;;;1.55;0.70;;;8.80;99.90;;;;;;5046209;28;20081;-72
2021/05/22 03:26:59;;;;;;;0.90;0.70;;;8.80;99.90;;;;;;5046807;28;20488;-75
2021/05/22 03:29:25;;;;;;;4.47;1.05;;;8.80;99.90;;;;;;5029100;28;20034;-73
2021/05/22 03:31:51;;;;;;;3.70;1.38;;;8.80;99.90;;;;;;5046183;28;20025;-75
2021/05/22 03:34:17;;;;;;;1.88;0.82;;;8.80;99.90;;;;;;5046748;28;20158;-72
2021/05/22 03:36:43;;;;;;;2.55;0.95;;;8.80;99.90;;;;;;5046660;28;20029;-75
2021/05/22 03:39:09;;;;;;;1.42;0.73;;;8.90;99.90;;;;;;5045743;28;20037;-76
2021/05/22 03:41:34;;;;;;;8.50;1.23;;;8.90;99.90;;;;;;5045419;28;20018;-77
2021/05/22 03:44:00;;;;;;;8.70;1.25;;;8.90;99.90;;;;;;5028117;28;20470;-68
2021/05/22 03:46:25;;;;;;;2.67;1.05;;;8.90;99.90;;;;;;5028824;28;20071;-70
2021/05/22 03:48:51;;;;;;;8.20;1.02;;;8.90;99.90;;;;;;5046355;28;20068;-74
2021/05/22 03:51:17;;;;;;;1.75;0.65;;;9.00;99.90;;;;;;5028329;28;20040;-74
2021/05/22 03:53:42;;;;;;;4.57;1.10;;;8.90;99.90;;;;;;5046478;28;20441;-73
2021/05/22 03:56:08;;;;;;;1.70;0.68;;;8.90;99.90;;;;;;5028242;28;20021;-73
2021/05/22 03:58:33;;;;;;;3.13;1.00;;;8.90;99.90;;;;;;5028147;28;20049;-71
2021/05/22 04:00:59;;;;;;;2.83;0.63;;;9.00;99.90;;;;;;5028136;28;20041;-74
2021/05/22 04:03:24;;;;;;;1.42;0.65;;;9.00;99.90;;;;;;5046068;28;20081;-71
2021/05/22 04:05:50;;;;;;;2.28;0.65;;;9.00;99.90;;;;;;5045858;28;20028;-72
2021/05/22 04:08:16;;;;;;;1.52;0.73;;;9.00;99.90;;;;;;5028133;28;20030;-75
2021/05/22 04:10:41;;;;;;;1.50;0.82;;;9.00;99.90;;;;;;5027538;28;20021;-75
2021/05/22 04:13:08;;;;;;;1.13;0.63;;;9.10;99.90;;;;;;5045706;28;20037;-73
2021/05/22 04:15:33;;;;;;;3.35;0.90;;;9.10;99.90;;;;;;5046023;28;20501;-73
2021/05/22 04:17:59;;;;;;;1.50;0.88;;;9.10;99.90;;;;;;5045582;28;20037;-73
2021/05/22 04:20:25;;;;;;;6.00;0.98;;;9.20;99.90;;;;;;5045981;28;20029;-71
2021/05/22 04:22:50;;;;;;;5.38;1.05;;;9.30;99.90;;;;;;5045974;28;20034;-73
2021/05/22 04:25:16;;;;;;;1.25;0.60;;;9.30;99.90;;;;;;5045666;28;20404;-70
2021/05/22 04:27:42;;;;;;;5.15;1.25;;;9.40;99.90;;;;;;5045481;28;20075;-74
2021/05/22 04:30:08;;;;;;;4.88;0.90;;;9.40;99.90;;;;;;5045327;28;20064;-71
2021/05/22 04:32:34;;;;;;;2.72;1.30;;;9.50;99.90;;;;;;5027529;28;20030;-75
2021/05/22 04:34:59;;;;;;;0.55;0.40;;;9.50;99.90;;;;;;5045721;28;20089;-73
2021/05/22 04:37:25;;;;;;;1.80;0.80;;;9.50;99.90;;;;;;5045221;28;20037;-72
2021/05/22 04:39:52;;;;;;;1.58;0.73;;;9.60;99.90;;;;;;5044435;28;20029;-73
2021/05/22 04:42:18;;;;;;;2.17;0.50;;;9.60;99.90;;;;;;5027680;28;20060;-72
2021/05/22 04:44:43;;;;;;;2.75;0.70;;;9.60;99.90;;;;;;5044836;28;20037;-70
2021/05/22 04:47:09;;;;;;;1.55;1.05;;;9.70;99.90;;;;;;5043718;28;20076;-73
2021/05/22 04:49:35;;;;;;;1.05;0.40;;;9.70;99.90;;;;;;5044813;28;20461;-72
2021/05/22 04:52:00;;;;;;;0.50;0.40;;;9.80;99.90;;;;;;5027247;28;20112;-72
2021/05/22 04:54:26;;;;;;;7.93;0.93;;;9.80;99.90;;;;;;5027796;28;20030;-73
2021/05/22 04:56:51;;;;;;;2.97;0.80;;;9.80;99.90;;;;;;5045488;28;20032;-71
2021/05/22 04:59:18;;;;;;;7.70;1.27;;;9.90;99.90;;;;;;5044958;28;20051;-71
2021/05/22 05:01:44;;;;;;;1.08;0.35;;;9.90;99.90;;;;;;5044394;28;20053;-70
2021/05/22 05:04:10;;;;;;;1.35;0.68;;;10.00;99.90;;;;;;5044864;28;20055;-70
2021/05/22 05:06:35;;;;;;;3.33;0.95;;;10.00;99.90;;;;;;5026910;28;20032;-74
2021/05/22 05:09:01;;;;;;;4.25;0.82;;;10.00;99.90;;;;;;5027075;28;20076;-72
2021/05/22 05:11:29;;;;;;;1.65;0.90;;;10.10;99.90;;;;;;5045132;28;20053;-72
2021/05/22 05:13:55;;;;;;;1.05;0.57;;;10.10;99.90;;;;;;5045101;28;20033;-71
2021/05/22 05:16:20;;;;;;;11.35;0.45;;;10.10;99.90;;;;;;5044376;28;20525;-70
2021/05/22 05:18:46;;;;;;;6.65;0.57;;;10.20;99.90;;;;;;5044649;28;20037;-72
2021/05/22 05:21:11;;;;;;;2.03;0.90;;;10.20;99.90;;;;;;5044545;28;20032;-74
2021/05/22 05:23:37;;;;;;;3.40;0.65;;;10.30;99.90;;;;;;5044435;28;20525;-73
2021/05/22 05:26:04;;;;;;;0.80;0.50;;;10.30;99.90;;;;;;5025967;28;20061;-73
2021/05/22 05:28:30;;;;;;;0.95;0.60;;;10.30;99.90;;;;;;5026890;28;20389;-72
2021/05/22 05:30:55;;;;;;;3.45;0.68;;;10.40;99.90;;;;;;5044564;28;20063;-72
2021/05/22 05:33:21;;;;;;;1.02;0.35;;;10.40;99.90;;;;;;5044543;28;20068;-70
2021/05/22 05:35:47;;;;;;;1.13;0.73;;;10.40;99.90;;;;;;5044374;28;20026;-71
2021/05/22 05:38:13;;;;;;;6.07;1.30;;;10.60;99.90;;;;;;5026680;28;20109;-73
2021/05/22 05:40:39;;;;;;;2.38;0.90;;;10.60;99.90;;;;;;5026546;28;20033;-71
2021/05/22 05:43:09;;;;;;;1.02;0.60;;;10.60;99.90;;;;;;5030677;28;20033;-70
2021/05/22 05:45:35;;;;;;;1.92;0.65;;;10.70;99.90;;;;;;5024524;28;20085;-72
2021/05/22 05:48:00;;;;;;;0.63;0.50;;;10.70;99.90;;;;;;5026237;28;20026;-71
2021/05/22 05:50:26;;;;;;;1.55;0.45;;;10.70;99.90;;;;;;5026441;28;20032;-71
2021/05/22 05:52:52;;;;;;;6.15;0.60;;;10.70;99.90;;;;;;5044345;28;20034;-74
2021/05/22 05:55:18;;;;;;;1.67;0.95;;;10.80;99.90;;;;;;5044373;28;20065;-72
2021/05/22 05:57:44;;;;;;;0.82;0.70;;;10.80;99.90;;;;;;5046100;28;20033;-71
2021/05/22 06:00:10;;;;;;;0.85;0.47;;;10.80;99.90;;;;;;5047841;28;20489;-73
2021/05/22 06:02:36;;;;;;;1.42;0.88;;;10.80;99.90;;;;;;5047920;28;20064;-71
2021/05/22 06:05:02;;;;;;;2.35;0.57;;;10.80;99.90;;;;;;5048215;28;20029;-74
2021/05/22 06:07:29;;;;;;;0.50;0.35;;;10.80;99.90;;;;;;5048310;28;20085;-72
2021/05/22 06:09:54;;;;;;;1.15;0.68;;;10.80;99.90;;;;;;5047800;28;20025;-74
2021/05/22 06:12:20;;;;;;;0.65;0.45;;;10.80;99.90;;;;;;5047981;28;20049;-72
2021/05/22 06:14:51;;;;;;;1.75;0.82;;;10.90;99.90;;;;;;5048303;28;20022;-74
2021/05/22 06:17:17;;;;;;;1.75;0.80;;;11.00;99.90;;;;;;5047152;28;20025;-72
2021/05/22 06:19:43;;;;;;;2.17;1.00;;;11.00;99.90;;;;;;5047000;28;20176;-71
2021/05/22 06:22:08;;;;;;;0.93;0.45;;;11.00;99.90;;;;;;5029916;28;20030;-70
2021/05/22 06:24:34;;;;;;;4.85;1.05;;;11.10;99.90;;;;;;5039445;28;20033;-75
2021/05/22 06:27:00;;;;;;;0.98;0.70;;;11.10;99.90;;;;;;5009323;28;20098;-73
2021/05/22 06:29:25;;;;;;;0.70;0.63;;;11.10;99.90;;;;;;5028146;28;20099;-75
2021/05/22 06:31:51;;;;;;;2.33;1.20;;;11.20;99.90;;;;;;5038716;28;20037;-74
2021/05/22 06:34:17;;;;;;;7.43;0.95;;;11.20;99.90;;;;;;5026606;28;20095;-73
2021/05/22 06:36:43;;;;;;;0.70;0.57;;;11.20;99.90;;;;;;5026218;28;20036;-74
2021/05/22 06:39:08;;;;;;;4.60;1.10;;;11.20;99.90;;;;;;5045211;28;20040;-73
2021/05/22 06:41:34;;;;;;;3.70;1.10;;;11.20;99.90;;;;;;5025466;28;20102;-71
2021/05/22 06:44:00;;;;;;;2.08;0.75;;;11.20;99.90;;;;;;5027119;28;20029;-75
2021/05/22 06:48:52;;;;;;;5.40;1.30;;;11.20;99.90;;;;;;5041433;28;20036;-73
2021/05/22 06:51:18;;;;;;;2.83;0.98;;;11.20;99.90;;;;;;5024445;28;20029;-75
2021/05/22 06:53:44;;;;;;;2.38;0.90;;;11.20;99.90;;;;;;5027715;28;20033;-72
2021/05/22 06:56:09;;;;;;;2.13;0.88;;;11.30;99.90;;;;;;5027160;28;20029;-73
2021/05/22 06:58:35;;;;;;;1.30;0.70;;;11.30;99.90;;;;;;5027212;28;20105;-76
2021/05/22 07:01:01;;;;;;;0.85;0.85;;;11.30;99.90;;;;;;5006438;28;20546;-70
2021/05/22 07:03:27;;;;;;;2.67;0.90;;;11.30;99.90;;;;;;5024217;28;20038;-73
2021/05/22 07:05:53;;;;;;;4.20;0.77;;;11.20;99.90;;;;;;5026086;28;20057;-70
2021/05/22 07:08:19;;;;;;;3.15;0.90;;;11.10;99.90;;;;;;5026008;28;20037;-72
2021/05/22 07:10:45;;;;;;;1.08;0.73;;;11.00;99.90;;;;;;5026761;28;20022;-72
2021/05/22 07:13:11;;;;;;;4.80;1.73;;;10.90;99.90;;;;;;5026639;28;20026;-74
2021/05/22 07:15:37;;;;;;;1.23;0.90;;;10.80;99.90;;;;;;5026378;28;20029;-71
2021/05/22 07:18:02;;;;;;;6.32;2.20;;;10.70;99.90;;;;;;5016999;28;20069;-72
2021/05/22 07:20:28;;;;;;;3.25;1.73;;;10.60;99.90;;;;;;5024238;28;20080;-74
2021/05/22 07:22:55;;;;;;;6.65;1.13;;;10.50;99.90;;;;;;5025955;28;20044;-71
2021/05/22 07:25:22;;;;;;;7.10;1.75;;;10.50;99.90;;;;;;5023173;28;20622;-68
2021/05/22 07:27:49;;;;;;;3.60;2.25;;;10.40;99.90;;;;;;5007236;28;20443;-76
2021/05/22 07:30:16;;;;;;;3.00;1.77;;;10.30;99.90;;;;;;5005943;28;20064;-72
2021/05/22 07:32:43;;;;;;;8.93;2.30;;;10.30;99.90;;;;;;5007148;28;20072;-73
2021/05/22 07:35:11;;;;;;;3.60;1.42;;;10.20;99.90;;;;;;5007148;28;20041;-74
2021/05/22 07:37:37;;;;;;;3.38;1.52;;;10.10;99.90;;;;;;5006773;28;20022;-73
2021/05/22 07:40:03;;;;;;;3.67;2.03;;;10.10;99.90;;;;;;5007255;28;20037;-77
2021/05/22 07:42:31;;;;;;;3.58;2.30;;;10.00;99.90;;;;;;5006326;28;20475;-73
2021/05/22 07:44:56;;;;;;;3.53;1.85;;;9.90;99.90;;;;;;5020002;28;20034;-71
2021/05/22 07:47:23;;;;;;;4.05;2.20;;;9.90;99.90;;;;;;5015367;28;20037;-71
2021/05/22 07:49:50;;;;;;;4.95;2.45;;;9.90;99.90;;;;;;5025443;28;20078;-71
2021/05/22 07:52:16;;;;;;;9.57;2.10;;;9.90;99.90;;;;;;5019037;28;20018;-75
2021/05/22 07:54:42;;;;;;;4.25;2.13;;;9.90;99.90;;;;;;5018235;28;20018;-75
2021/05/22 07:57:09;;;;;;;12.25;3.03;;;9.90;99.90;;;;;;5011264;28;20117;-75
2021/05/22 07:59:37;;;;;;;25.50;3.15;;;9.90;99.90;;;;;;5012305;28;20038;-73
2021/05/22 08:02:04;;;;;;;3.10;1.63;;;9.90;99.90;;;;;;5022111;28;20482;-70
2021/05/22 08:04:30;;;;;;;5.38;2.25;;;9.90;99.90;;;;;;5045061;28;20064;-73
2021/05/22 08:06:56;;;;;;;6.07;2.67;;;9.90;99.90;;;;;;5024389;28;20026;-72
2021/05/22 08:09:22;;;;;;;12.02;2.28;;;9.90;99.90;;;;;;5025827;28;20033;-70
2021/05/22 08:11:48;;;;;;;5.55;1.90;;;9.90;99.90;;;;;;5036820;28;20033;-72
2021/05/22 08:14:13;;;;;;;4.97;1.92;;;9.90;99.90;;;;;;5045982;28;20033;-75
2021/05/22 08:16:39;;;;;;;8.35;2.90;;;9.90;99.90;;;;;;5044812;28;20036;-73
2021/05/22 08:19:06;;;;;;;9.45;2.22;;;9.90;99.90;;;;;;5045101;28;20041;-72
2021/05/22 08:21:32;;;;;;;4.05;2.17;;;9.90;99.90;;;;;;5044743;28;20385;-75
2021/05/22 08:23:58;;;;;;;3.08;1.92;;;10.00;99.90;;;;;;5023862;28;20092;-73
2021/05/22 08:26:24;;;;;;;5.25;2.00;;;10.00;99.90;;;;;;5025909;28;20030;-71
2021/05/22 08:28:51;;;;;;;8.05;2.85;;;10.00;99.90;;;;;;5007707;28;20034;-69
2021/05/22 08:31:17;;;;;;;10.63;3.05;;;9.90;99.90;;;;;;5008517;28;20034;-73
2021/05/22 08:33:44;;;;;;;12.80;3.45;;;9.90;99.90;;;;;;5035792;28;20112;-70
2021/05/22 08:36:09;;;;;;;23.27;4.00;;;9.90;99.90;;;;;;5040492;28;20025;-73
2021/05/22 08:38:36;;;;;;;3.50;2.38;;;9.90;99.90;;;;;;5027054;28;20037;-72
2021/05/22 08:41:04;;;;;;;9.63;2.22;;;9.80;99.90;;;;;;5044615;28;20536;-75
2021/05/22 08:43:31;;;;;;;9.93;2.63;;;9.90;99.90;;;;;;5027230;28;20033;-72
2021/05/22 08:45:58;;;;;;;6.70;2.53;;;9.90;99.90;;;;;;5044161;28;20129;-71
2021/05/22 08:48:24;;;;;;;4.57;2.50;;;9.90;99.90;;;;;;5044842;28;20159;-73
2021/05/22 08:50:50;;;;;;;5.25;2.40;;;10.00;99.90;;;;;;5027275;28;20490;-75
2021/05/22 08:53:16;;;;;;;8.82;2.80;;;9.90;99.90;;;;;;5026850;28;20026;-71
2021/05/22 08:55:42;;;;;;;4.47;3.00;;;9.90;99.90;;;;;;5044727;28;20031;-71
2021/05/22 08:58:07;;;;;;;6.40;2.58;;;9.90;99.90;;;;;;5025763;28;20068;-74
2021/05/22 09:00:39;;;;;;;6.10;3.20;;;9.90;99.90;;;;;;5026753;28;20057;-72
2021/05/22 09:03:06;;;;;;;26.02;2.78;;;9.90;99.90;;;;;;5045046;28;20037;-73
2021/05/22 09:05:37;;;;;;;7.93;2.92;;;9.90;99.90;;;;;;5026498;28;20072;-75
2021/05/22 09:08:15;;;;;;;9.60;3.10;;;10.00;99.90;;;;;;5044420;28;20034;-73
2021/05/22 09:10:43;;;;;;;6.32;2.58;;;10.00;99.90;;;;;;5044666;28;20037;-72
2021/05/22 09:13:19;;;;;;;7.60;2.80;;;10.00;99.90;;;;;;5044401;28;20079;-75
2021/05/22 09:15:46;;;;;;;9.35;3.15;;;10.00;99.90;;;;;;5044866;28;20021;-71
2021/05/22 09:18:14;;;;;;;4.75;2.58;;;10.00;99.90;;;;;;5044401;28;20041;-73
2021/05/22 09:20:50;;;;;;;5.00;3.15;;;10.00;99.90;;;;;;5026505;28;20029;-71
2021/05/22 09:23:36;;;;;;;6.13;2.70;;;10.00;99.90;;;;;;5029021;28;20024;-73
2021/05/22 09:26:04;;;;;;;4.65;2.80;;;10.00;99.90;;;;;;5044299;28;20034;-75
2021/05/22 09:28:41;;;;;;;13.85;2.92;;;10.00;99.90;;;;;;5044746;28;20033;-71
2021/05/22 09:31:10;;;;;;;5.90;3.08;;;10.00;99.90;;;;;;5044196;28;20044;-72
2021/05/22 09:33:36;;;;;;;5.40;2.85;;;10.00;99.90;;;;;;5044058;28;20022;-74
2021/05/22 09:36:08;;;;;;;3.78;2.03;;;10.00;99.90;;;;;;5026887;28;20032;-70
2021/05/22 09:38:34;;;;;;;6.97;3.67;;;10.00;99.90;;;;;;5044526;28;20037;-74
2021/05/22 09:41:13;;;;;;;7.00;2.47;;;9.90;99.90;;;;;;5044557;28;20033;-76
2021/05/22 09:43:39;;;;;;;8.18;3.08;;;10.00;99.90;;;;;;5026004;28;20057;-71
2021/05/22 09:46:09;;;;;;;4.13;2.40;;;10.00;99.90;;;;;;5026347;28;20029;-72
2021/05/22 09:48:36;;;;;;;3.85;2.38;;;10.10;99.90;;;;;;5023327;28;20057;-73
2021/05/22 09:51:04;;;;;;;5.45;2.35;;;10.10;99.90;;;;;;5009483;28;20060;-72
2021/05/22 09:53:36;;;;;;;6.32;3.95;;;10.10;99.90;;;;;;5036952;28;20061;-76
2021/05/22 09:56:21;;;;;;;8.15;3.58;;;10.10;99.90;;;;;;5044222;28;20032;-78
2021/05/22 09:58:50;;;;;;;5.30;2.90;;;10.10;99.90;;;;;;5023134;28;20105;-75
2021/05/22 10:01:18;;;;;;;5.18;3.15;;;10.10;99.90;;;;;;5023681;28;20398;-74
2021/05/22 10:03:44;;;;;;;10.60;4.50;;;10.10;99.90;;;;;;5039822;28;20033;-72
2021/05/22 10:06:11;;;;;;;13.68;2.80;;;10.10;99.90;;;;;;5044017;28;20030;-76
2021/05/22 10:08:38;;;;;;;8.65;3.22;;;10.10;99.90;;;;;;5026234;28;20022;-74
2021/05/22 10:11:04;;;;;;;3.70;2.35;;;10.10;99.90;;;;;;5044271;28;20098;-74
2021/05/22 10:13:29;;;;;;;5.22;2.45;;;10.10;99.90;;;;;;5044294;28;20470;-73
2021/05/22 10:15:58;;;;;;;8.02;3.00;;;10.20;99.90;;;;;;5043486;28;20037;-72
2021/05/22 10:18:26;;;;;;;5.43;2.38;;;10.20;99.90;;;;;;5043921;28;20041;-74
2021/05/22 10:20:53;;;;;;;14.63;3.47;;;10.20;99.90;;;;;;5025968;28;20454;-71
2021/05/22 10:23:20;;;;;;;5.10;2.75;;;10.30;99.90;;;;;;5026051;28;20454;-74
2021/05/22 10:25:53;;;;;;;5.53;3.08;;;10.30;99.90;;;;;;5043799;28;20048;-72
2021/05/22 10:28:19;;;;;;;9.07;4.15;;;10.20;99.90;;;;;;5033127;28;20041;-75
2021/05/22 10:30:48;;;;;;;19.17;4.15;;;10.30;99.90;;;;;;5034543;28;20247;-74
2021/05/22 10:33:16;;;;;;;4.95;3.10;;;10.30;99.90;;;;;;5022718;28;20096;-72
2021/05/22 10:35:55;;;;;;;4.63;2.85;;;10.30;99.90;;;;;;5031926;28;20026;-73
2021/05/22 10:38:35;;;;;;;10.32;2.97;;;10.30;99.90;;;;;;5036566;28;20033;-74
2021/05/22 10:41:05;;;;;;;12.77;3.75;;;10.40;99.90;;;;;;5028943;28;20038;-73
2021/05/22 10:43:42;;;;;;;9.13;3.42;;;10.50;99.90;;;;;;5014165;28;20030;-73
2021/05/22 10:46:08;;;;;;;10.48;3.00;;;10.60;99.90;;;;;;5018501;28;20093;-75
2021/05/22 10:48:35;;;;;;;8.70;3.40;;;10.70;99.90;;;;;;5027475;28;20529;-75
2021/05/22 10:51:01;;;;;;;4.70;2.95;;;10.80;99.90;;;;;;5027485;28;20048;-73
2021/05/22 10:53:37;;;;;;;5.40;2.70;;;10.80;99.90;;;;;;5028142;28;20065;-74
2021/05/22 10:56:07;;;;;;;4.45;3.00;;;10.90;99.90;;;;;;5007900;28;20034;-72
2021/05/22 10:58:56;;;;;;;4.47;2.40;;;10.90;99.90;;;;;;5008617;28;20398;-73
2021/05/22 11:04:11;;;;;;;4.00;2.28;;;11.10;99.90;;;;;;5025660;28;20380;-76
2021/05/22 11:06:43;;;;;;;5.78;2.97;;;11.10;99.90;;;;;;5026091;28;20034;-72
2021/05/22 11:09:29;;;;;;;9.90;2.50;;;11.10;99.90;;;;;;5026687;28;20044;-76
2021/05/22 11:11:56;;;;;;;3.88;1.77;;;11.10;99.90;;;;;;5026947;28;20057;-72
2021/05/22 11:14:36;;;;;;;4.88;2.33;;;11.10;99.90;;;;;;5033602;28;20053;-74
2021/05/22 11:17:21;;;;;;;3.45;2.05;;;11.10;99.90;;;;;;5030824;28;20036;-77
2021/05/22 11:20:01;;;;;;;3.88;1.95;;;11.10;99.90;;;;;;5046290;28;20037;-78
2021/05/22 11:22:28;;;;;;;4.43;1.80;;;11.10;99.90;;;;;;5047155;28;20432;-75
2021/05/22 11:25:04;;;;;;;7.22;2.22;;;11.20;99.90;;;;;;5029149;28;20029;-75
2021/05/22 11:27:48;;;;;;;4.20;1.95;;;11.20;99.90;;;;;;5046012;28;20040;-73
2021/05/22 11:30:36;;;;;;;2.30;1.83;;;11.30;99.90;;;;;;5046512;28;20033;-73
2021/05/22 11:33:10;;;;;;;5.13;2.53;;;11.30;99.90;;;;;;5019827;28;20140;-76
2021/05/22 11:35:46;;;;;;;3.03;1.60;;;11.40;99.90;;;;;;5028152;28;20033;-73
2021/05/22 11:38:12;;;;;;;4.28;2.13;;;11.30;99.90;;;;;;5028427;28;20049;-74
2021/05/22 11:40:38;;;;;;;6.13;2.42;;;11.30;99.90;;;;;;5028544;28;20104;-75
2021/05/22 11:43:12;;;;;;;3.28;1.60;;;11.30;99.90;;;;;;5046492;28;20022;-75
2021/05/22 11:45:39;;;;;;;4.65;1.65;;;11.40;99.90;;;;;;5029075;28;20037;-72
2021/05/22 11:48:39;;;;;;;2.28;1.48;;;11.40;99.90;;;;;;5028122;28;20097;-74
2021/05/22 11:51:07;;;;;;;4.03;2.10;;;11.40;99.90;;;;;;5028537;28;20018;-74
2021/05/22 11:53:33;;;;;;;3.25;1.73;;;11.40;99.90;;;;;;5046386;28;20021;-74
2021/05/22 11:56:01;;;;;;;1.35;1.13;;;11.40;99.90;;;;;;5026863;28;20053;-76
2021/05/22 11:58:28;;;;;;;3.35;1.63;;;11.40;99.90;;;;;;5046379;28;20045;-74
2021/05/22 12:01:05;;;;;;;8.95;2.10;;;11.40;99.90;;;;;;5044713;28;20462;-74
2021/05/22 12:03:30;;;;;;;2.95;1.27;;;11.40;99.90;;;;;;5045355;28;20041;-72
2021/05/22 12:05:56;;;;;;;1.35;1.25;;;11.40;99.90;;;;;;5062002;28;20036;-75
2021/05/22 12:08:25;;;;;;;2.17;1.48;;;11.30;99.90;;;;;;5065482;28;20089;-74
2021/05/22 12:10:51;;;;;;;2.35;1.40;;;11.40;99.90;;;;;;5065948;28;20093;-73
2021/05/22 12:13:17;;;;;;;1.80;1.05;;;11.30;99.90;;;;;;5048205;28;20028;-76
2021/05/22 12:15:44;;;;;;;1.30;1.10;;;11.40;99.90;;;;;;5065552;28;20039;-76
2021/05/22 12:18:13;;;;;;;4.05;2.00;;;11.40;99.90;;;;;;5050153;28;20029;-72
2021/05/22 12:20:52;;;;;;;3.40;1.80;;;11.40;99.90;;;;;;5027617;28;20067;-74
2021/05/22 12:23:28;;;;;;;2.70;1.52;;;11.50;99.90;;;;;;5044093;28;20060;-72
2021/05/22 12:25:54;;;;;;;2.70;1.92;;;11.50;99.90;;;;;;5026583;28;20060;-72
2021/05/22 12:28:21;;;;;;;4.97;2.22;;;11.50;99.90;;;;;;5045345;28;20029;-73
2021/05/22 12:30:47;;;;;;;2.90;1.77;;;11.60;99.90;;;;;;5045082;28;20482;-72
2021/05/22 12:33:16;;;;;;;3.47;1.83;;;11.70;99.90;;;;;;5045513;28;20032;-75
2021/05/22 12:35:42;;;;;;;2.50;1.73;;;11.80;99.90;;;;;;5027722;28;20029;-76
2021/05/22 12:38:08;;;;;;;4.82;1.58;;;11.90;99.90;;;;;;5044847;28;20041;-70
2021/05/22 12:40:48;;;;;;;5.82;2.47;;;11.90;99.90;;;;;;5027720;28;20436;-74
2021/05/22 12:43:15;;;;;;;3.50;1.45;;;11.80;99.90;;;;;;5045462;28;20041;-72
2021/05/22 12:45:43;;;;;;;1.38;0.98;;;11.90;99.90;;;;;;5045001;28;20366;-72
2021/05/22 12:48:22;;;;;;;2.42;1.63;;;11.90;99.90;;;;;;5026963;28;20041;-72
2021/05/22 12:50:48;;;;;;;6.65;1.52;;;11.90;99.90;;;;;;5043553;28;20037;-72
2021/05/22 12:53:14;;;;;;;2.15;1.17;;;11.90;99.90;;;;;;5043138;28;20064;-75
2021/05/22 12:55:39;;;;;;;1.98;1.13;;;11.90;99.90;;;;;;5044786;28;20037;-76
2021/05/22 12:58:20;;;;;;;9.43;2.00;;;11.90;99.90;;;;;;5044407;28;20041;-74
2021/05/22 13:00:50;;;;;;;2.30;1.23;;;12.00;99.90;;;;;;5044396;28;20021;-76